Time;durP1;ratioP1;P1;durP2;ratioP2;P2;SDS_P1;SDS_P2;PMS_P1;PMS_P2;Temp;Humidity;BMP_temperature;BMP_pressure;BME280_temperature;BME280_humidity;BME280_pressure;Samples;Min_cycle;Max_cycle;Signal;HPM_P1;HPM_P2
2023/03/02 00:00:06;;;;;;;;;;;;;;;;;;4988330;28;20285;-95
2023/03/02 00:03:21;;;;;;;;;;;;;;;;;;4995223;28;19909;-92
2023/03/02 00:05:45;;;;;;;;;;;;;;;;;;;;;
2023/03/02 00:08:27;;;;;;;;;;;;;;;;;;5024215;28;19932;-95
2023/03/02 00:11:30;;;;;;;;;;;;;;;;;;5020094;28;19930;-96
2023/03/02 00:14:02;;;;;;;;;;;;;;;;;;;;;
2023/03/02 00:22:09;;;;;;;;;;;;;;;;;;4977491;28;19984;-92
2023/03/02 00:30:20;;;;;;;;;;;;;;;;;;4973932;28;19968;-96
2023/03/02 00:35:39;;;;;;;;;;;;;;;;;;5016798;28;19992;-95
2023/03/02 00:38:17;;;;;;;;;;;;;;;;;;5005764;28;20020;-94
2023/03/02 00:40:44;;;;;;;;;;;;;;;;;;4982818;28;19968;-92
2023/03/02 00:43:10;;;;;;;;;;;;;;;;;;4982947;28;19922;-92
2023/03/02 00:45:36;;;;;;;;;;;;;;;;;;4982926;28;19921;-93
2023/03/02 00:48:02;;;;;;;;;;;;;;;;;;4999109;28;20378;-93
2023/03/02 00:50:27;;;;;;;;;;;;;;;;;;4984821;28;19925;-94
2023/03/02 00:52:53;;;;;;;;;;;;;;;;;;5002475;28;20012;-94
2023/03/02 00:55:19;;;;;;;;;;;;;;;;;;4982765;28;20026;-94
2023/03/02 00:57:54;;;;;;;;;;;;;;;;;;4982961;28;19921;-93
2023/03/02 01:00:19;;;;;;;;;;;;;;;;;;4982737;28;19921;-94
2023/03/02 01:02:45;;;;;;;;;;;;;;;;;;4982931;28;20021;-93
2023/03/02 01:05:11;;;;;;;;;;;;;;;;;;4997401;28;19921;-94
2023/03/02 01:07:37;;;;;;;;;;;;;;;;;;4982848;28;20366;-94
2023/03/02 01:10:03;;;;;;;;;;;;;;;;;;4982455;28;19921;-92
2023/03/02 01:12:29;;;;;;;;;;;;;;;;;;4982622;28;19922;-93
2023/03/02 01:14:56;;;;;;;;;;;;;;;;;;4982796;28;19922;-96
2023/03/02 01:17:25;;;;;;;;;;;;;;;;;;4982444;28;19922;-94
2023/03/02 01:19:51;;;;;;;;;;;;;;;;;;4998885;28;19925;-94
2023/03/02 01:22:17;;;;;;;;;;;;;;;;;;4982536;28;19930;-94
2023/03/02 01:24:43;;;;;;;;;;;;;;;;;;4998464;28;19947;-92
2023/03/02 01:27:09;;;;;;;;;;;;;;;;;;4982362;28;19922;-93
2023/03/02 01:29:35;;;;;;;;;;;;;;;;;;4981916;28;19922;-95
2023/03/02 01:32:01;;;;;;;;;;;;;;;;;;4982307;28;19933;-93
2023/03/02 01:34:27;;;;;;;;;;;;;;;;;;4982005;28;20390;-92
2023/03/02 01:36:53;;;;;;;;;;;;;;;;;;4997748;28;20004;-94
2023/03/02 01:39:21;;;;;;;;;;;;;;;;;;4998399;28;20436;-93
2023/03/02 01:41:47;;;;;;;;;;;;;;;;;;4981592;28;20012;-92
2023/03/02 01:44:13;;;;;;;;;;;;;;;;;;4981960;28;19976;-93
2023/03/02 01:46:39;;;;;;;;;;;;;;;;;;4998304;28;19929;-94
2023/03/02 01:49:05;;;;;;;;;;;;;;;;;;4981825;28;19921;-92
2023/03/02 01:51:30;;;;;;;;;;;;;;;;;;4981522;28;20012;-92
2023/03/02 01:53:56;;;;;;;;;;;;;;;;;;4981396;28;20098;-91
2023/03/02 01:56:25;;;;;;;;;;;;;;;;;;4981686;28;19928;-93
2023/03/02 01:58:51;;;;;;;;;;;;;;;;;;4981416;28;19922;-92
2023/03/02 02:01:17;;;;;;;;;;;;;;;;;;4981640;28;20270;-93
2023/03/02 02:03:43;;;;;;;;;;;;;;;;;;4997894;28;20366;-93
2023/03/02 02:06:09;;;;;;;;;;;;;;;;;;4981592;28;19921;-93
2023/03/02 02:08:35;;;;;;;;;;;;;;;;;;4981534;28;19965;-95
2023/03/02 02:11:04;;;;;;;;;;;;;;;;;;4981844;28;19929;-93
2023/03/02 02:13:33;;;;;;;;;;;;;;;;;;4981799;28;19922;-96
2023/03/02 02:37:05;;;;;;;;;;;;;;;;;;4976616;26;20386;-95
2023/03/02 02:39:39;;;;;;;;;;;;;;;;;;4949079;28;19973;-95
2023/03/02 02:42:56;;;;;;;;;;;;;;;;;;;;;
2023/03/02 02:48:43;;;;;;;;;;;;;;;;;;;;;
2023/03/02 02:51:18;;;;;;;;;;;;;;;;;;4959059;28;19977;-93
2023/03/02 02:53:44;;;;;;;;;;;;;;;;;;4942147;28;20434;-95
2023/03/02 02:56:10;;;;;;;;;;;;;;;;;;4942852;28;20270;-93
2023/03/02 02:58:39;;;;;;;;;;;;;;;;;;4942415;28;19925;-93
2023/03/02 03:01:05;;;;;;;;;;;;;;;;;;4942645;28;19922;-93
2023/03/02 03:03:32;;;;;;;;;;;;;;;;;;4958348;28;19945;-94
2023/03/02 03:05:58;;;;;;;;;;;;;;;;;;4942735;28;19968;-94
2023/03/02 03:08:23;;;;;;;;;;;;;;;;;;4958238;28;20373;-94
2023/03/02 03:10:49;;;;;;;;;;;;;;;;;;4942083;28;19949;-94
2023/03/02 03:13:15;;;;;;;;;;;;;;;;;;4942162;28;20406;-94
2023/03/02 03:15:41;;;;;;;;;;;;;;;;;;4942348;28;19922;-94
2023/03/02 03:18:07;;;;;;;;;;;;;;;;;;4942167;28;19929;-95
2023/03/02 03:20:33;;;;;;;;;;;;;;;;;;4942292;28;19930;-95
2023/03/02 03:23:02;;;;;;;;;;;;;;;;;;4942232;28;19930;-95
2023/03/02 03:25:33;;;;;;;;;;;;;;;;;;4957960;28;20094;-95
2023/03/02 03:27:59;;;;;;;;;;;;;;;;;;4942018;28;19929;-91
2023/03/02 03:30:25;;;;;;;;;;;;;;;;;;4941682;28;19926;-95
2023/03/02 03:32:54;;;;;;;;;;;;;;;;;;4942047;28;19972;-95
2023/03/02 03:35:22;;;;;;;;;;;;;;;;;;4942523;28;19926;-92
2023/03/02 03:37:48;;;;;;;;;;;;;;;;;;4941932;28;19948;-92
2023/03/02 03:40:14;;;;;;;;;;;;;;;;;;4941878;28;19938;-94
2023/03/02 03:42:40;;;;;;;;;;;;;;;;;;4955036;28;19926;-92
2023/03/02 03:45:07;;;;;;;;;;;;;;;;;;4953332;28;19934;-95
2023/03/02 03:47:33;;;;;;;;;;;;;;;;;;4941844;28;19922;-95
2023/03/02 03:50:02;;;;;;;;;;;;;;;;;;4941522;28;19930;-96
2023/03/02 03:52:31;;;;;;;;;;;;;;;;;;4941731;28;19930;-93
2023/03/02 03:54:58;;;;;;;;;;;;;;;;;;4957245;28;19974;-95
2023/03/02 03:57:24;;;;;;;;;;;;;;;;;;4957353;28;20405;-94
2023/03/02 03:59:50;;;;;;;;;;;;;;;;;;4944656;28;19922;-93
2023/03/02 04:02:19;;;;;;;;;;;;;;;;;;4946099;28;19941;-96
2023/03/02 04:04:45;;;;;;;;;;;;;;;;;;4945632;28;20017;-93
2023/03/02 04:07:11;;;;;;;;;;;;;;;;;;4945769;28;19988;-94
2023/03/02 04:09:38;;;;;;;;;;;;;;;;;;4945486;28;19922;-94
2023/03/02 04:12:03;;;;;;;;;;;;;;;;;;4945540;28;20438;-94
2023/03/02 04:14:35;;;;;;;;;;;;;;;;;;4945314;28;19985;-93
2023/03/02 04:17:04;;;;;;;;;;;;;;;;;;4945076;28;19922;-94
2023/03/02 04:19:30;;;;;;;;;;;;;;;;;;4945889;28;19929;-95
2023/03/02 04:21:57;;;;;;;;;;;;;;;;;;4945264;28;19922;-94
2023/03/02 04:24:23;;;;;;;;;;;;;;;;;;4945526;28;20282;-92
2023/03/02 04:26:49;;;;;;;;;;;;;;;;;;4945181;28;19932;-94
2023/03/02 04:29:15;;;;;;;;;;;;;;;;;;4945760;28;19929;-93
2023/03/02 04:31:40;;;;;;;;;;;;;;;;;;4961024;28;19976;-92
2023/03/02 04:34:09;;;;;;;;;;;;;;;;;;4944741;28;19953;-91
2023/03/02 04:36:38;;;;;;;;;;;;;;;;;;4945426;28;19930;-93
2023/03/02 04:39:04;;;;;;;;;;;;;;;;;;4944841;28;19968;-93
2023/03/02 04:41:35;;;;;;;;;;;;;;;;;;4944804;28;19922;-94
2023/03/02 04:44:01;;;;;;;;;;;;;;;;;;4945041;28;19922;-93
2023/03/02 04:46:27;;;;;;;;;;;;;;;;;;4945116;28;20483;-93
2023/03/02 04:48:53;;;;;;;;;;;;;;;;;;4960700;28;19945;-94
2023/03/02 04:51:22;;;;;;;;;;;;;;;;;;4944903;28;19926;-95
2023/03/02 04:53:48;;;;;;;;;;;;;;;;;;4944424;28;20379;-93
2023/03/02 04:56:14;;;;;;;;;;;;;;;;;;4944388;28;19922;-93
2023/03/02 04:58:40;;;;;;;;;;;;;;;;;;4944298;28;20181;-93
2023/03/02 05:01:07;;;;;;;;;;;;;;;;;;4960280;28;20025;-93
2023/03/02 05:03:36;;;;;;;;;;;;;;;;;;4960322;28;19973;-93
2023/03/02 05:06:05;;;;;;;;;;;;;;;;;;4944186;28;20408;-93
2023/03/02 05:08:31;;;;;;;;;;;;;;;;;;4944245;28;19977;-93
2023/03/02 05:10:57;;;;;;;;;;;;;;;;;;4942932;28;19926;-93
2023/03/02 05:13:23;;;;;;;;;;;;;;;;;;4944050;28;19922;-92
2023/03/02 05:15:51;;;;;;;;;;;;;;;;;;4944951;28;19933;-93
2023/03/02 05:18:18;;;;;;;;;;;;;;;;;;4947962;28;20505;-93
2023/03/02 05:20:44;;;;;;;;;;;;;;;;;;4947905;28;19933;-90
2023/03/02 05:23:10;;;;;;;;;;;;;;;;;;4948036;28;19922;-93
2023/03/02 05:25:36;;;;;;;;;;;;;;;;;;4964948;28;19929;-93
2023/03/02 05:28:02;;;;;;;;;;;;;;;;;;4960051;28;20017;-96
2023/03/02 05:30:36;;;;;;;;;;;;;;;;;;4944164;28;20275;-95
2023/03/02 05:33:02;;;;;;;;;;;;;;;;;;4943479;28;19929;-95
2023/03/02 05:35:28;;;;;;;;;;;;;;;;;;4959366;28;19926;-95
2023/03/02 05:37:54;;;;;;;;;;;;;;;;;;4943454;28;19969;-95
2023/03/02 05:40:19;;;;;;;;;;;;;;;;;;4944099;28;19926;-95
2023/03/02 05:42:47;;;;;;;;;;;;;;;;;;4959743;28;20359;-96
2023/03/02 05:45:13;;;;;;;;;;;;;;;;;;4943501;28;19952;-95
2023/03/02 05:47:39;;;;;;;;;;;;;;;;;;4959675;28;19926;-95
2023/03/02 05:50:12;;;;;;;;;;;;;;;;;;4943814;28;19922;-95
2023/03/02 05:52:44;;;;;;;;;;;;;;;;;;4947279;28;19926;-96
2023/03/02 05:55:13;;;;;;;;;;;;;;;;;;4946161;28;19922;-96
2023/03/02 05:57:39;;;;;;;;;;;;;;;;;;4943401;28;19949;-96
2023/03/02 06:00:04;;;;;;;;;;;;;;;;;;4944243;28;19926;-96
2023/03/02 06:02:31;;;;;;;;;;;;;;;;;;4943892;28;19985;-95
2023/03/02 06:04:57;;;;;;;;;;;;;;;;;;4942473;28;19926;-95
2023/03/02 06:07:23;;;;;;;;;;;;;;;;;;4959154;28;19961;-93
2023/03/02 06:09:49;;;;;;;;;;;;;;;;;;4942906;28;19926;-96
2023/03/02 06:12:16;;;;;;;;;;;;;;;;;;4942902;28;20017;-96
2023/03/02 06:14:45;;;;;;;;;;;;;;;;;;4942772;28;19922;-94
2023/03/02 06:17:11;;;;;;;;;;;;;;;;;;4943100;28;19923;-96
2023/03/02 06:19:40;;;;;;;;;;;;;;;;;;4958904;28;19922;-95
2023/03/02 06:22:06;;;;;;;;;;;;;;;;;;4942906;28;19922;-94
2023/03/02 06:24:35;;;;;;;;;;;;;;;;;;4942526;28;20237;-95
2023/03/02 06:27:04;;;;;;;;;;;;;;;;;;4942319;28;19922;-95
2023/03/02 06:29:30;;;;;;;;;;;;;;;;;;4958587;28;19953;-95
2023/03/02 06:31:56;;;;;;;;;;;;;;;;;;4949005;28;19926;-96
2023/03/02 06:34:22;;;;;;;;;;;;;;;;;;4947381;28;19922;-95
2023/03/02 06:36:51;;;;;;;;;;;;;;;;;;4947140;28;20343;-91
2023/03/02 06:39:17;;;;;;;;;;;;;;;;;;4959106;28;19930;-95
2023/03/02 06:41:45;;;;;;;;;;;;;;;;;;4946423;28;19928;-94
2023/03/02 06:44:14;;;;;;;;;;;;;;;;;;4944017;28;19922;-95
2023/03/02 06:46:40;;;;;;;;;;;;;;;;;;4958635;28;19946;-95
2023/03/02 06:49:06;;;;;;;;;;;;;;;;;;4942044;28;19922;-95
2023/03/02 06:51:32;;;;;;;;;;;;;;;;;;4942039;28;19926;-94
2023/03/02 06:54:01;;;;;;;;;;;;;;;;;;4942505;28;19925;-95
2023/03/02 06:56:32;;;;;;;;;;;;;;;;;;4942714;28;20299;-95
2023/03/02 06:59:01;;;;;;;;;;;;;;;;;;4945724;28;20068;-96
2023/03/02 07:01:31;;;;;;;;;;;;;;;;;;4945877;28;19970;-96
2023/03/02 07:03:58;;;;;;;;;;;;;;;;;;4942645;28;20012;-95
2023/03/02 07:06:28;;;;;;;;;;;;;;;;;;4942428;28;19965;-96
2023/03/02 07:08:54;;;;;;;;;;;;;;;;;;4958298;28;19922;-95
2023/03/02 07:11:20;;;;;;;;;;;;;;;;;;4941790;28;19933;-95
2023/03/02 07:13:46;;;;;;;;;;;;;;;;;;4942587;28;19932;-95
2023/03/02 07:16:12;;;;;;;;;;;;;;;;;;4942309;28;19922;-96
2023/03/02 07:18:38;;;;;;;;;;;;;;;;;;4961043;28;19933;-95
2023/03/02 07:21:07;;;;;;;;;;;;;;;;;;4945072;28;19968;-93
2023/03/02 07:23:33;;;;;;;;;;;;;;;;;;4941841;28;20104;-93
2023/03/02 07:25:59;;;;;;;;;;;;;;;;;;4941616;28;20073;-95
2023/03/02 07:28:26;;;;;;;;;;;;;;;;;;4958106;28;20134;-95
2023/03/02 07:30:58;;;;;;;;;;;;;;;;;;4961351;28;19930;-93
2023/03/02 07:33:24;;;;;;;;;;;;;;;;;;4923279;29;20009;-94
2023/03/02 07:35:53;;;;;;;;;;;;;;;;;;4922871;29;19973;-94
2023/03/02 07:38:31;;;;;;;;;;;;;;;;;;4922742;29;19922;-95
2023/03/02 07:40:57;;;;;;;;;;;;;;;;;;4941676;28;19973;-94
2023/03/02 07:43:24;;;;;;;;;;;;;;;;;;4941643;28;20327;-92
2023/03/02 07:45:50;;;;;;;;;;;;;;;;;;4949626;28;19968;-93
2023/03/02 07:48:17;;;;;;;;;;;;;;;;;;4960113;28;19922;-92
2023/03/02 07:50:43;;;;;;;;;;;;;;;;;;4960123;28;19926;-92
2023/03/02 07:53:09;;;;;;;;;;;;;;;;;;4976522;28;19976;-92
2023/03/02 07:55:34;;;;;;;;;;;;;;;;;;4960167;28;19968;-93
2023/03/02 07:58:00;;;;;;;;;;;;;;;;;;4960352;28;19988;-94
2023/03/02 08:00:29;;;;;;;;;;;;;;;;;;4976962;28;19922;-93
2023/03/02 08:02:55;;;;;;;;;;;;;;;;;;4955722;28;19933;-93
2023/03/02 08:05:21;;;;;;;;;;;;;;;;;;4941137;28;19922;-93
2023/03/02 08:07:47;;;;;;;;;;;;;;;;;;4940745;28;20379;-92
2023/03/02 08:10:16;;;;;;;;;;;;;;;;;;4941820;28;20296;-93
2023/03/02 08:12:42;;;;;;;;;;;;;;;;;;4942414;28;20001;-96
2023/03/02 08:15:11;;;;;;;;;;;;;;;;;;4941615;28;19945;-93
2023/03/02 08:17:37;;;;;;;;;;;;;;;;;;4940665;28;20374;-95
2023/03/02 08:20:03;;;;;;;;;;;;;;;;;;4940809;28;19922;-94
2023/03/02 08:22:29;;;;;;;;;;;;;;;;;;4941048;28;19926;-92
2023/03/02 08:24:55;;;;;;;;;;;;;;;;;;4941304;28;19922;-94
2023/03/02 08:27:21;;;;;;;;;;;;;;;;;;4957166;28;19984;-95
2023/03/02 08:29:47;;;;;;;;;;;;;;;;;;4941971;28;19922;-95
2023/03/02 08:32:13;;;;;;;;;;;;;;;;;;4958030;28;19926;-94
2023/03/02 08:34:39;;;;;;;;;;;;;;;;;;4952270;28;19933;-93
2023/03/02 08:37:05;;;;;;;;;;;;;;;;;;4952437;28;19926;-90
2023/03/02 08:39:31;;;;;;;;;;;;;;;;;;4958475;28;19963;-93
2023/03/02 08:41:57;;;;;;;;;;;;;;;;;;4964255;28;19926;-92
2023/03/02 08:44:23;;;;;;;;;;;;;;;;;;4948025;28;19930;-93
2023/03/02 08:46:49;;;;;;;;;;;;;;;;;;4944534;28;20302;-94
2023/03/02 08:49:15;;;;;;;;;;;;;;;;;;4946511;28;19946;-95
2023/03/02 08:51:41;;;;;;;;;;;;;;;;;;4949028;28;19927;-92
2023/03/02 08:54:13;;;;;;;;;;;;;;;;;;4961647;28;19922;-94
2023/03/02 08:56:39;;;;;;;;;;;;;;;;;;4947498;28;20016;-96
2023/03/02 08:59:12;;;;;;;;;;;;;;;;;;4946596;28;19926;-96
2023/03/02 09:01:59;;;;;;;;;;;;;;;;;;4945316;28;19926;-95
2023/03/02 09:04:24;;;;;;;;;;;;;;;;;;4961673;28;19973;-95
2023/03/02 09:06:50;;;;;;;;;;;;;;;;;;4945193;28;19922;-96
2023/03/02 09:09:19;;;;;;;;;;;;;;;;;;4948056;28;19989;-95
2023/03/02 09:11:45;;;;;;;;;;;;;;;;;;4962182;28;19926;-96
2023/03/02 09:14:14;;;;;;;;;;;;;;;;;;4945267;28;19922;-95
2023/03/02 09:16:40;;;;;;;;;;;;;;;;;;4944187;28;19984;-95
2023/03/02 09:19:06;;;;;;;;;;;;;;;;;;4944242;28;19922;-94
2023/03/02 09:21:32;;;;;;;;;;;;;;;;;;4944000;28;20012;-95
2023/03/02 09:23:58;;;;;;;;;;;;;;;;;;4944258;28;19923;-96
2023/03/02 09:26:26;;;;;;;;;;;;;;;;;;4944716;28;19922;-94
2023/03/02 09:28:52;;;;;;;;;;;;;;;;;;4945058;28;20252;-95
2023/03/02 09:31:21;;;;;;;;;;;;;;;;;;4944243;28;19981;-94
2023/03/02 09:33:50;;;;;;;;;;;;;;;;;;4948337;28;19929;-93
2023/03/02 09:36:19;;;;;;;;;;;;;;;;;;4947371;28;19969;-95
2023/03/02 09:38:45;;;;;;;;;;;;;;;;;;4945751;28;19926;-96
2023/03/02 09:41:11;;;;;;;;;;;;;;;;;;4944946;28;19926;-94
2023/03/02 09:43:37;;;;;;;;;;;;;;;;;;4943652;28;19922;-95
2023/03/02 09:46:08;;;;;;;;;;;;;;;;;;4943823;28;19969;-95
2023/03/02 09:48:37;;;;;;;;;;;;;;;;;;4943584;28;19930;-95
2023/03/02 09:51:03;;;;;;;;;;;;;;;;;;4956545;28;20366;-93
2023/03/02 09:53:29;;;;;;;;;;;;;;;;;;4964259;28;19932;-94
2023/03/02 09:56:04;;;;;;;;;;;;;;;;;;4963937;28;19929;-96
2023/03/02 09:58:30;;;;;;;;;;;;;;;;;;4968476;28;19922;-96
2023/03/02 10:00:58;;;;;;;;;;;;;;;;;;4940031;29;19942;-95
2023/03/02 10:03:37;;;;;;;;;;;;;;;;;;;;;
2023/03/02 10:06:15;;;;;;;;;;;;;;;;;;4922028;29;19942;-94
2023/03/02 10:08:42;;;;;;;;;;;;;;;;;;4938548;29;19923;-93
2023/03/02 10:11:13;;;;;;;;;;;;;;;;;;4924737;29;19931;-94
2023/03/02 10:13:41;;;;;;;;;;;;;;;;;;4916696;29;19974;-93
2023/03/02 10:16:09;;;;;;;;;;;;;;;;;;4919161;29;20494;-94
2023/03/02 10:18:35;;;;;;;;;;;;;;;;;;4904153;29;20383;-94
2023/03/02 10:21:01;;;;;;;;;;;;;;;;;;4904132;29;19923;-95
2023/03/02 10:23:27;;;;;;;;;;;;;;;;;;4904815;29;20422;-95
2023/03/02 10:25:53;;;;;;;;;;;;;;;;;;4906559;29;19961;-96
2023/03/02 10:28:19;;;;;;;;;;;;;;;;;;5238562;23;20068;-95
2023/03/02 10:33:48;;;;;;;;;;;;;;;;;;5285254;23;20951;-93
2023/03/02 10:39:20;;;;;;;;;;;;;;;;;;5012102;28;19921;-95
2023/03/02 10:41:49;;;;;;;;;;;;;;;;;;4982259;28;19926;-96
2023/03/02 10:44:15;;;;;;;;;;;;;;;;;;4981527;28;19971;-94
2023/03/02 10:46:41;;;;;;;;;;;;;;;;;;4981108;28;20293;-96
2023/03/02 10:49:13;;;;;;;;;;;;;;;;;;4984634;28;19922;-96
2023/03/02 11:00:05;;;;;;;;;;;;;;;;;;4974514;28;19933;-96
2023/03/02 11:02:31;;;;;;;;;;;;;;;;;;4945405;28;19965;-95
2023/03/02 11:05:11;;;;;;;;;;;;;;;;;;4949596;28;19922;-94
2023/03/02 11:07:43;;;;;;;;;;;;;;;;;;4964704;28;19933;-96
2023/03/02 11:10:11;;;;;;;;;;;;;;;;;;4958052;28;19922;-95
2023/03/02 11:23:31;;;;;;;;;;;;;;;;;;5137337;23;19933;-92
2023/03/02 11:25:57;;;;;;;;;;;;;;;;;;4980894;28;20270;-96
2023/03/02 11:28:26;;;;;;;;;;;;;;;;;;4978464;28;19930;-94
2023/03/02 11:46:11;;;;;;;;;;;;;;;;;;5448086;23;19933;-94
2023/03/02 11:48:37;;;;;;;;;;;;;;;;;;4977311;28;19921;-94
2023/03/02 11:51:13;;;;;;;;;;;;;;;;;;;;;
2023/03/02 11:53:49;;;;;;;;;;;;;;;;;;5007765;28;19925;-96
2023/03/02 11:56:31;;;;;;;;;;;;;;;;;;;;;
2023/03/02 11:59:00;;;;;;;;;;;;;;;;;;5008995;28;19964;-96
2023/03/02 12:01:46;;;;;;;;;;;;;;;;;;4996474;28;20385;-93
2023/03/02 12:04:16;;;;;;;;;;;;;;;;;;4978850;28;19928;-95
2023/03/02 12:09:39;;;;;;;;;;;;;;;;;;4947804;29;19923;-94
2023/03/02 12:12:11;;;;;;;;;;;;;;;;;;4945886;29;20133;-95
2023/03/02 12:15:00;;;;;;;;;;;;;;;;;;4956196;28;20017;-95
2023/03/02 12:17:47;;;;;;;;;;;;;;;;;;4947985;29;19929;-96
2023/03/02 12:20:33;;;;;;;;;;;;;;;;;;4944749;29;19960;-93
2023/03/02 12:23:12;;;;;;;;;;;;;;;;;;5037078;23;19926;-94
2023/03/02 12:32:04;;;;;;;;;;;;;;;;;;5309101;23;19988;-96
2023/03/02 12:34:43;;;;;;;;;;;;;;;;;;4967735;28;20008;-95
2023/03/02 12:40:11;;;;;;;;;;;;;;;;;;4924790;29;19981;-94
2023/03/02 12:42:37;;;;;;;;;;;;;;;;;;4955189;28;19922;-94
2023/03/02 12:45:23;;;;;;;;;;;;;;;;;;4973282;28;19922;-94
2023/03/02 12:47:52;;;;;;;;;;;;;;;;;;4970156;28;19928;-95
2023/03/02 12:50:43;;;;;;;;;;;;;;;;;;;;;
2023/03/02 13:01:48;;;;;;;;;;;;;;;;;;5984602;23;19917;-95
2023/03/02 13:04:14;;;;;;;;;;;;;;;;;;4969256;28;19925;-94
2023/03/02 13:09:39;;;;;;;;;;;;;;;;;;5388047;23;19926;-92
2023/03/02 13:33:33;;;;;;;;;;;;;;;;;;4978482;28;19926;-96
2023/03/02 13:36:09;;;;;;;;;;;;;;;;;;4986869;28;19922;-93
2023/03/02 13:38:38;;;;;;;;;;;;;;;;;;4973718;28;19993;-96
2023/03/02 13:44:02;;;;;;;;;;;;;;;;;;4981543;28;19922;-94
2023/03/02 13:46:29;;;;;;;;;;;;;;;;;;5243242;23;19933;-93
2023/03/02 13:48:55;;;;;;;;;;;;;;;;;;5164056;23;19948;-95
2023/03/02 13:51:24;;;;;;;;;;;;;;;;;;4982839;28;19926;-95
2023/03/02 13:53:50;;;;;;;;;;;;;;;;;;4983817;28;20016;-95
2023/03/02 13:56:17;;;;;;;;;;;;;;;;;;4981820;28;19922;-95
2023/03/02 14:01:26;;;;;;;;;;;;;;;;;;5062723;23;19961;-94
2023/03/02 14:09:16;;;;;;;;;;;;;;;;;;4993857;28;20039;-96
2023/03/02 14:17:06;;;;;;;;;;;;;;;;;;5810377;23;19926;-91
2023/03/02 14:19:32;;;;;;;;;;;;;;;;;;4981159;28;19925;-94
2023/03/02 14:25:18;;;;;;;;;;;;;;;;;;4964419;28;19928;-95
2023/03/02 14:31:00;;;;;;;;;;;;;;;;;;4973752;28;19995;-95
2023/03/02 14:33:26;;;;;;;;;;;;;;;;;;4962166;28;20393;-94
2023/03/02 14:35:52;;;;;;;;;;;;;;;;;;4983371;28;19974;-95
2023/03/02 14:38:21;;;;;;;;;;;;;;;;;;4981580;28;19926;-95
2023/03/02 14:40:47;;;;;;;;;;;;;;;;;;4966651;28;20378;-93
2023/03/02 14:43:13;;;;;;;;;;;;;;;;;;4966952;28;19922;-95
2023/03/02 14:45:39;;;;;;;;;;;;;;;;;;4962254;28;20017;-95
2023/03/02 14:48:05;;;;;;;;;;;;;;;;;;4962176;28;19948;-92
2023/03/02 14:50:31;;;;;;;;;;;;;;;;;;4961386;28;19921;-94
2023/03/02 14:52:57;;;;;;;;;;;;;;;;;;4961874;28;19926;-93
2023/03/02 14:55:24;;;;;;;;;;;;;;;;;;4961609;28;20390;-94
2023/03/02 14:57:50;;;;;;;;;;;;;;;;;;4978417;28;20108;-95
2023/03/02 15:16:21;;;;;;;;;;;;;;;;;;5202024;23;19957;-96
2023/03/02 15:18:47;;;;;;;;;;;;;;;;;;4961860;28;19930;-96
2023/03/02 15:29:57;;;;;;;;;;;;;;;;;;4962648;28;20397;-96
2023/03/02 15:32:23;;;;;;;;;;;;;;;;;;4967570;28;19926;-94
2023/03/02 15:34:49;;;;;;;;;;;;;;;;;;4958249;28;19922;-94
2023/03/02 15:37:15;;;;;;;;;;;;;;;;;;4976151;28;19926;-93
2023/03/02 15:39:43;;;;;;;;;;;;;;;;;;4976678;28;20294;-94
2023/03/02 15:42:09;;;;;;;;;;;;;;;;;;4976604;28;20426;-94
2023/03/02 15:44:38;;;;;;;;;;;;;;;;;;4993896;28;19933;-96
2023/03/02 15:47:07;;;;;;;;;;;;;;;;;;4979794;28;20252;-96
2023/03/02 15:49:36;;;;;;;;;;;;;;;;;;4977598;28;19996;-93
2023/03/02 15:52:08;;;;;;;;;;;;;;;;;;4977931;28;20391;-93
2023/03/02 15:54:37;;;;;;;;;;;;;;;;;;4978319;28;19985;-92
2023/03/02 15:57:03;;;;;;;;;;;;;;;;;;4979844;28;19953;-94
2023/03/02 15:59:29;;;;;;;;;;;;;;;;;;4977307;28;20012;-93
2023/03/02 16:02:00;;;;;;;;;;;;;;;;;;4977409;28;19976;-92
2023/03/02 16:04:27;;;;;;;;;;;;;;;;;;4976357;28;19968;-92
2023/03/02 16:06:56;;;;;;;;;;;;;;;;;;4992518;28;19929;-92
2023/03/02 16:09:24;;;;;;;;;;;;;;;;;;4977417;28;19980;-93
2023/03/02 16:11:51;;;;;;;;;;;;;;;;;;4960288;28;19958;-93
2023/03/02 16:14:16;;;;;;;;;;;;;;;;;;4976259;28;19951;-93
2023/03/02 16:16:42;;;;;;;;;;;;;;;;;;4975874;28;19922;-93
2023/03/02 16:19:08;;;;;;;;;;;;;;;;;;4975822;28;19922;-92
2023/03/02 16:21:35;;;;;;;;;;;;;;;;;;4976409;28;19922;-92
2023/03/02 16:24:03;;;;;;;;;;;;;;;;;;4976550;28;20394;-91
2023/03/02 16:26:29;;;;;;;;;;;;;;;;;;4975403;28;19926;-91
2023/03/02 16:28:55;;;;;;;;;;;;;;;;;;4975542;28;19952;-91
2023/03/02 16:31:25;;;;;;;;;;;;;;;;;;4974898;28;19929;-91
2023/03/02 16:33:51;;;;;;;;;;;;;;;;;;4978733;28;19944;-91
2023/03/02 16:36:17;;;;;;;;;;;;;;;;;;4975997;28;20008;-93
2023/03/02 16:38:42;;;;;;;;;;;;;;;;;;4975862;28;19922;-93
2023/03/02 16:41:08;;;;;;;;;;;;;;;;;;4975489;28;19926;-92
2023/03/02 16:43:34;;;;;;;;;;;;;;;;;;4975633;28;19925;-92
2023/03/02 16:46:00;;;;;;;;;;;;;;;;;;4991691;28;20268;-93
2023/03/02 16:48:26;;;;;;;;;;;;;;;;;;4975818;28;19922;-92
2023/03/02 16:50:52;;;;;;;;;;;;;;;;;;4975503;28;20029;-92
2023/03/02 16:53:19;;;;;;;;;;;;;;;;;;4975711;28;19925;-92
2023/03/02 16:55:47;;;;;;;;;;;;;;;;;;4977205;28;19945;-93
2023/03/02 16:58:20;;;;;;;;;;;;;;;;;;4997545;28;19948;-93
2023/03/02 17:00:46;;;;;;;;;;;;;;;;;;4975854;28;19922;-94
2023/03/02 17:03:12;;;;;;;;;;;;;;;;;;4975799;28;19930;-93
2023/03/02 17:05:41;;;;;;;;;;;;;;;;;;4975375;28;19925;-93
2023/03/02 17:08:09;;;;;;;;;;;;;;;;;;4978659;28;19925;-92
2023/03/02 17:10:35;;;;;;;;;;;;;;;;;;4978901;28;19929;-92
2023/03/02 17:13:00;;;;;;;;;;;;;;;;;;4979173;28;19921;-91
2023/03/02 17:15:26;;;;;;;;;;;;;;;;;;4978067;28;19922;-91
2023/03/02 17:17:52;;;;;;;;;;;;;;;;;;4978533;28;19937;-92
2023/03/02 17:20:21;;;;;;;;;;;;;;;;;;4978285;28;19921;-91
2023/03/02 17:22:47;;;;;;;;;;;;;;;;;;4978513;28;19933;-93
2023/03/02 17:25:15;;;;;;;;;;;;;;;;;;4978738;28;19921;-93
2023/03/02 17:27:41;;;;;;;;;;;;;;;;;;4970542;28;19926;-91
2023/03/02 17:30:07;;;;;;;;;;;;;;;;;;4958761;28;19922;-91
2023/03/02 17:32:33;;;;;;;;;;;;;;;;;;4974980;28;19933;-92
2023/03/02 17:34:59;;;;;;;;;;;;;;;;;;4958696;28;19922;-91
2023/03/02 17:37:27;;;;;;;;;;;;;;;;;;4958455;28;19922;-91
2023/03/02 17:39:52;;;;;;;;;;;;;;;;;;4958491;28;19937;-92
2023/03/02 17:42:18;;;;;;;;;;;;;;;;;;4958552;28;19922;-92
2023/03/02 17:44:44;;;;;;;;;;;;;;;;;;4959012;28;20311;-92
2023/03/02 17:47:10;;;;;;;;;;;;;;;;;;4958752;28;20368;-94
2023/03/02 17:49:36;;;;;;;;;;;;;;;;;;4959324;28;20009;-92
2023/03/02 17:52:02;;;;;;;;;;;;;;;;;;4958738;28;19926;-91
2023/03/02 17:54:28;;;;;;;;;;;;;;;;;;4959390;28;19922;-92
2023/03/02 17:56:57;;;;;;;;;;;;;;;;;;4959071;28;19922;-91
2023/03/02 17:59:23;;;;;;;;;;;;;;;;;;4958114;28;19930;-91
2023/03/02 18:01:49;;;;;;;;;;;;;;;;;;4958426;28;20294;-91
2023/03/02 18:04:15;;;;;;;;;;;;;;;;;;4958293;28;19933;-91
2023/03/02 18:06:41;;;;;;;;;;;;;;;;;;4957985;28;19922;-91
2023/03/02 18:09:06;;;;;;;;;;;;;;;;;;4958337;28;19933;-91
2023/03/02 18:11:32;;;;;;;;;;;;;;;;;;4957964;28;19926;-92
2023/03/02 18:13:58;;;;;;;;;;;;;;;;;;4958717;28;19928;-95
2023/03/02 18:16:24;;;;;;;;;;;;;;;;;;4958492;28;20287;-92
2023/03/02 18:18:50;;;;;;;;;;;;;;;;;;4957965;28;20008;-92
2023/03/02 18:21:16;;;;;;;;;;;;;;;;;;4959006;28;19922;-94
2023/03/02 18:23:45;;;;;;;;;;;;;;;;;;4959302;28;19977;-92
2023/03/02 18:26:11;;;;;;;;;;;;;;;;;;4959078;28;19926;-93
2023/03/02 18:28:37;;;;;;;;;;;;;;;;;;4958760;28;19926;-92
2023/03/02 18:31:03;;;;;;;;;;;;;;;;;;4958551;28;19933;-92
2023/03/02 18:33:29;;;;;;;;;;;;;;;;;;4958144;28;20012;-92
2023/03/02 18:35:56;;;;;;;;;;;;;;;;;;4974186;28;19988;-89
2023/03/02 18:38:22;;;;;;;;;;;;;;;;;;4957274;28;19981;-90
2023/03/02 18:40:47;;;;;;;;;;;;;;;;;;4957713;28;19992;-91
2023/03/02 18:43:13;;;;;;;;;;;;;;;;;;4957502;28;19929;-90
2023/03/02 18:45:40;;;;;;;;;;;;;;;;;;4957535;28;19930;-90
2023/03/02 18:48:06;;;;;;;;;;;;;;;;;;4957137;28;19922;-90
2023/03/02 18:50:32;;;;;;;;;;;;;;;;;;4957488;28;19930;-91
2023/03/02 18:52:58;;;;;;;;;;;;;;;;;;4973330;28;19932;-89
2023/03/02 18:55:24;;;;;;;;;;;;;;;;;;4957336;28;19973;-90
2023/03/02 18:57:52;;;;;;;;;;;;;;;;;;4973123;28;19922;-89
2023/03/02 19:00:18;;;;;;;;;;;;;;;;;;4973157;28;19953;-89
2023/03/02 19:02:44;;;;;;;;;;;;;;;;;;4956789;28;19934;-89
2023/03/02 19:05:10;;;;;;;;;;;;;;;;;;4956450;28;19929;-89
2023/03/02 19:07:36;;;;;;;;;;;;;;;;;;4956776;28;19930;-91
2023/03/02 19:10:02;;;;;;;;;;;;;;;;;;4956949;28;20264;-92
2023/03/02 19:12:28;;;;;;;;;;;;;;;;;;4956817;28;20299;-90
2023/03/02 19:14:54;;;;;;;;;;;;;;;;;;4972647;28;19922;-90
2023/03/02 19:17:20;;;;;;;;;;;;;;;;;;4956803;28;19973;-88
2023/03/02 19:19:46;;;;;;;;;;;;;;;;;;4956409;28;20017;-89
2023/03/02 19:22:15;;;;;;;;;;;;;;;;;;4956485;28;19944;-89
2023/03/02 19:24:43;;;;;;;;;;;;;;;;;;4956288;28;20367;-88
2023/03/02 19:27:09;;;;;;;;;;;;;;;;;;4956093;28;19969;-90
2023/03/02 19:29:34;;;;;;;;;;;;;;;;;;4955835;28;19978;-89
2023/03/02 19:32:02;;;;;;;;;;;;;;;;;;4956651;28;20034;-90
2023/03/02 19:34:28;;;;;;;;;;;;;;;;;;4956584;28;19926;-89
2023/03/02 19:36:53;;;;;;;;;;;;;;;;;;4973060;28;20294;-91
2023/03/02 19:39:19;;;;;;;;;;;;;;;;;;4958454;28;20024;-94
2023/03/02 19:41:45;;;;;;;;;;;;;;;;;;4957878;28;19922;-93
2023/03/02 19:44:11;;;;;;;;;;;;;;;;;;4957343;28;19923;-94
2023/03/02 19:46:37;;;;;;;;;;;;;;;;;;4957136;28;19930;-93